createdAt,value
2022-12-04T00:01:27.941Z,58.40
2022-12-04T00:04:01.363Z,56.10
2022-12-04T00:06:29.449Z,42.63
2022-12-04T00:08:57.922Z,71.47
2022-12-04T00:11:31.112Z,70.57
2022-12-04T00:14:04.588Z,63.20
2022-12-04T00:16:33.402Z,67.10
2022-12-04T00:19:00.141Z,63.58
2022-12-04T00:21:28.975Z,55.85
2022-12-04T00:23:55.704Z,49.33
2022-12-04T00:26:28.445Z,57.47
2022-12-04T00:28:56.360Z,81.45
2022-12-04T00:31:28.352Z,66.60
2022-12-04T00:33:55.372Z,57.83
2022-12-04T00:36:23.620Z,62.53
2022-12-04T00:38:50.957Z,68.90
2022-12-04T00:41:20.179Z,70.68
2022-12-04T00:43:47.244Z,37.83
2022-12-04T00:46:15.321Z,54.63
2022-12-04T00:48:44.583Z,58.53
2022-12-04T00:51:15.004Z,58.97
2022-12-04T00:53:42.879Z,40.72
2022-12-04T00:56:21.969Z,64.20
2022-12-04T01:01:18.527Z,68.97
2022-12-04T01:03:45.861Z,70.88
2022-12-04T01:06:27.368Z,66.78
2022-12-04T01:08:55.331Z,73.53
2022-12-04T01:11:23.429Z,69.93
2022-12-04T01:13:50.856Z,71.43
2022-12-04T01:16:27.255Z,63.60
2022-12-04T01:18:55.026Z,79.80
2022-12-04T01:21:22.744Z,59.08
2022-12-04T01:23:50.696Z,47.65
2022-12-04T01:26:17.396Z,62.40
2022-12-04T01:28:46.591Z,74.15
2022-12-04T01:31:15.690Z,64.55
2022-12-04T01:33:43.164Z,50.13
2022-12-04T01:36:14.480Z,61.17
2022-12-04T01:38:41.695Z,52.55
2022-12-04T01:41:10.298Z,51.83
2022-12-04T01:43:38.523Z,66.80
2022-12-04T01:46:06.161Z,62.55
2022-12-04T01:48:34.319Z,64.93
2022-12-04T01:51:07.998Z,59.92
2022-12-04T01:53:39.304Z,70.38
2022-12-04T01:58:50.591Z,67.20
2022-12-04T02:01:18.822Z,63.00
2022-12-04T02:03:45.640Z,61.42
2022-12-04T02:06:12.447Z,59.30
2022-12-04T02:08:40.718Z,54.97
2022-12-04T02:11:42.023Z,53.65
2022-12-04T02:14:22.434Z,64.13
2022-12-04T02:17:07.123Z,67.40
2022-12-04T02:20:02.461Z,58.85
2022-12-04T02:23:15.158Z,63.22
2022-12-04T02:25:54.343Z,72.97
2022-12-04T02:28:39.109Z,64.38
2022-12-04T02:31:16.525Z,66.82
2022-12-04T02:36:27.827Z,62.70
2022-12-04T02:39:18.363Z,59.28
2022-12-04T02:42:12.220Z,67.63
2022-12-04T02:44:48.834Z,64.50
2022-12-04T02:47:20.241Z,63.08
2022-12-04T02:49:52.995Z,64.57
2022-12-04T02:52:26.064Z,59.53
2022-12-04T02:55:01.107Z,67.38
2022-12-04T02:57:36.718Z,71.65
2022-12-04T03:00:09.478Z,71.95
2022-12-04T03:02:45.718Z,61.78
2022-12-04T03:08:04.569Z,67.28
2022-12-04T03:10:38.593Z,68.80
2022-12-04T03:13:13.784Z,74.30
2022-12-04T03:16:05.496Z,68.03
2022-12-04T03:19:01.082Z,68.80
2022-12-04T03:24:37.985Z,66.38
2022-12-04T03:27:27.599Z,61.80
2022-12-04T03:30:04.936Z,67.50
2022-12-04T03:32:38.509Z,62.53
2022-12-04T03:35:27.506Z,69.03
2022-12-04T03:38:17.495Z,71.38
2022-12-04T03:41:13.761Z,67.60
2022-12-04T03:44:00.389Z,62.47
2022-12-04T03:49:04.792Z,64.25
2022-12-04T03:51:39.884Z,65.45
2022-12-04T03:54:21.307Z,72.07
2022-12-04T03:56:55.220Z,58.60
2022-12-04T03:59:27.117Z,69.18
2022-12-04T04:01:59.876Z,65.00
2022-12-04T04:04:35.266Z,67.80
2022-12-04T04:07:11.939Z,64.33
2022-12-04T04:09:44.330Z,64.25
2022-12-04T04:12:16.764Z,63.60
2022-12-04T04:15:10.655Z,65.32
2022-12-04T04:18:03.794Z,58.22
2022-12-04T04:21:12.074Z,66.95
2022-12-04T04:24:04.687Z,75.55
2022-12-04T04:26:35.717Z,77.47
2022-12-04T04:29:02.740Z,80.63
2022-12-04T04:31:32.449Z,60.95
2022-12-04T04:34:16.979Z,72.13
2022-12-04T04:36:54.279Z,59.33
2022-12-04T04:39:27.664Z,57.92
2022-12-04T04:42:21.513Z,46.63
2022-12-04T04:44:58.347Z,52.38
2022-12-04T04:47:39.798Z,62.00
2022-12-04T04:50:10.596Z,65.78
2022-12-04T04:52:40.749Z,68.05
2022-12-04T04:55:08.537Z,73.70
2022-12-04T04:57:36.583Z,64.40
2022-12-04T05:00:12.487Z,71.93
2022-12-04T05:02:39.250Z,75.63
2022-12-04T05:05:06.494Z,73.00
2022-12-04T05:07:33.489Z,74.07
2022-12-04T05:10:01.527Z,73.90
2022-12-04T05:12:28.367Z,74.20
2022-12-04T05:14:55.152Z,64.97
2022-12-04T05:17:23.166Z,72.55
2022-12-04T05:19:57.219Z,72.53
2022-12-04T05:22:26.405Z,69.78
2022-12-04T05:24:53.663Z,72.10
2022-12-04T05:27:21.540Z,74.28
2022-12-04T05:29:48.832Z,70.97
2022-12-04T05:32:15.472Z,69.78
2022-12-04T05:34:43.202Z,75.22
2022-12-04T05:37:09.879Z,80.95
2022-12-04T05:39:36.607Z,83.25
2022-12-04T05:42:04.478Z,66.50
2022-12-04T05:44:31.178Z,66.80
2022-12-04T05:46:58.201Z,72.55
2022-12-04T05:49:25.151Z,67.30
2022-12-04T05:51:52.098Z,63.70
2022-12-04T05:54:19.362Z,79.30
2022-12-04T05:56:46.385Z,71.68
2022-12-04T05:59:13.957Z,78.25
2022-12-04T06:01:41.360Z,80.40
2022-12-04T06:04:08.002Z,70.15
2022-12-04T06:06:36.991Z,77.65
2022-12-04T06:09:03.862Z,74.97
2022-12-04T06:11:33.092Z,83.18
2022-12-04T06:14:01.414Z,79.93
2022-12-04T06:16:31.149Z,72.22
2022-12-04T06:19:00.302Z,76.35
2022-12-04T06:21:29.083Z,83.75
2022-12-04T06:23:57.251Z,79.68
2022-12-04T06:26:24.750Z,76.95
2022-12-04T06:28:56.956Z,85.97
2022-12-04T06:31:28.571Z,76.03
2022-12-04T06:33:56.785Z,83.80
2022-12-04T06:36:24.733Z,77.57
2022-12-04T06:38:56.553Z,87.57
2022-12-04T06:41:25.246Z,77.88
2022-12-04T06:43:52.580Z,73.82
2022-12-04T06:46:24.992Z,78.53
2022-12-04T06:48:52.482Z,79.72
2022-12-04T06:51:22.188Z,83.35
2022-12-04T06:53:49.480Z,81.63
2022-12-04T06:56:19.397Z,79.90
2022-12-04T06:58:50.981Z,74.63
2022-12-04T07:01:27.454Z,79.18
2022-12-04T07:03:55.791Z,88.63
2022-12-04T07:06:29.121Z,77.45
2022-12-04T07:09:00.427Z,65.90
2022-12-04T07:11:27.706Z,37.58
2022-12-04T07:13:55.253Z,56.05
2022-12-04T07:16:23.556Z,49.25
2022-12-04T07:18:53.457Z,63.75
2022-12-04T07:21:24.050Z,53.03
2022-12-04T07:23:52.781Z,82.10
2022-12-04T07:26:22.995Z,73.72
2022-12-04T07:28:49.977Z,77.57
2022-12-04T07:31:19.263Z,84.65
2022-12-04T07:33:48.686Z,79.90
2022-12-04T07:36:18.192Z,78.90
2022-12-04T07:38:45.023Z,82.25
2022-12-04T07:41:13.780Z,78.78
2022-12-04T07:43:41.124Z,67.88
2022-12-04T07:46:19.782Z,75.85
2022-12-04T07:48:46.629Z,72.97
2022-12-04T07:51:16.068Z,67.90
2022-12-04T07:53:44.032Z,75.65
2022-12-04T07:56:12.767Z,68.15
2022-12-04T07:58:40.106Z,64.18
2022-12-04T08:01:07.032Z,65.80
2022-12-04T08:03:33.908Z,59.30
2022-12-04T08:06:02.625Z,57.15
2022-12-04T08:08:29.899Z,63.40
2022-12-04T08:10:56.825Z,59.30
2022-12-04T08:13:23.532Z,64.22
2022-12-04T08:15:50.681Z,55.42
2022-12-04T08:18:19.705Z,58.50
2022-12-04T08:20:46.357Z,55.22
2022-12-04T08:23:13.551Z,65.47
2022-12-04T08:25:41.386Z,60.15
2022-12-04T08:28:12.091Z,59.97
2022-12-04T08:30:38.918Z,61.65
2022-12-04T08:33:05.667Z,56.45
2022-12-04T08:35:32.617Z,65.10
2022-12-04T08:37:59.249Z,55.50
2022-12-04T08:40:26.079Z,57.38
2022-12-04T08:42:52.872Z,61.67
2022-12-04T08:45:20.190Z,63.45
2022-12-04T08:47:52.212Z,60.47
2022-12-04T08:50:19.315Z,67.18
2022-12-04T08:52:46.070Z,63.72
2022-12-04T08:55:13.138Z,57.50
2022-12-04T08:57:41.124Z,59.92
2022-12-04T09:00:08.286Z,67.43
2022-12-04T09:02:37.661Z,65.78
2022-12-04T09:05:04.562Z,68.47
2022-12-04T09:07:31.295Z,70.13
2022-12-04T09:09:58.630Z,68.10
2022-12-04T09:12:26.680Z,57.65
2022-12-04T09:14:54.693Z,61.25
2022-12-04T09:17:22.641Z,66.05
2022-12-04T09:19:51.758Z,62.25
2022-12-04T09:22:19.649Z,63.22
2022-12-04T09:24:46.566Z,65.22
2022-12-04T09:27:15.127Z,66.50
2022-12-04T09:29:42.422Z,58.10
2022-12-04T09:32:09.081Z,53.58
2022-12-04T09:34:36.883Z,58.03
2022-12-04T09:37:03.686Z,49.40
2022-12-04T09:39:30.453Z,50.80
2022-12-04T09:42:17.306Z,47.03
2022-12-04T09:44:49.875Z,53.33
2022-12-04T09:47:24.337Z,52.38
2022-12-04T09:49:58.678Z,45.92
2022-12-04T09:52:38.627Z,49.38
2022-12-04T09:55:12.398Z,38.58
2022-12-04T09:57:44.270Z,43.42
2022-12-04T10:00:14.682Z,51.35
2022-12-04T10:02:45.515Z,48.33
2022-12-04T10:05:21.665Z,52.67
2022-12-04T10:10:39.996Z,43.30
2022-12-04T10:13:54.392Z,42.65
2022-12-04T10:16:33.047Z,39.60
2022-12-04T10:19:07.452Z,34.65
2022-12-04T10:21:51.449Z,26.33
2022-12-04T10:25:03.360Z,29.90
2022-12-04T10:27:53.968Z,38.63
2022-12-04T10:30:26.756Z,43.30
2022-12-04T10:33:00.965Z,34.78
2022-12-04T10:35:30.506Z,31.83
2022-12-04T10:38:12.720Z,36.08
2022-12-04T10:40:51.213Z,26.63
2022-12-04T10:43:36.487Z,28.15
2022-12-04T10:46:03.178Z,35.28
2022-12-04T10:48:37.516Z,27.98
2022-12-04T10:51:04.738Z,25.70
2022-12-04T10:53:35.413Z,31.50
2022-12-04T10:56:18.005Z,33.95
2022-12-04T10:58:56.103Z,39.53
2022-12-04T11:01:23.753Z,32.97
2022-12-04T11:03:59.254Z,32.63
2022-12-04T11:06:27.371Z,27.75
2022-12-04T11:08:55.149Z,26.45
2022-12-04T11:11:31.380Z,33.53
2022-12-04T11:14:17.336Z,33.60
2022-12-04T11:16:50.136Z,34.83
2022-12-04T11:19:41.465Z,34.03
2022-12-04T11:22:15.200Z,36.63
2022-12-04T11:24:43.226Z,31.98
2022-12-04T11:27:25.320Z,30.23
2022-12-04T11:29:52.258Z,28.85
2022-12-04T11:32:26.577Z,33.38
2022-12-04T11:35:00.417Z,23.17
2022-12-04T11:37:32.249Z,31.33
2022-12-04T11:40:00.422Z,33.55
2022-12-04T11:42:29.509Z,34.05
2022-12-04T11:44:59.114Z,35.28
2022-12-04T11:47:31.707Z,38.00
2022-12-04T11:50:13.215Z,34.45
2022-12-04T11:52:54.594Z,35.22
2022-12-04T11:56:15.914Z,34.22
2022-12-04T11:59:01.684Z,31.33
2022-12-04T12:01:37.447Z,34.20
2022-12-04T12:04:32.106Z,28.58
2022-12-04T12:07:19.418Z,31.40
2022-12-04T12:10:21.498Z,33.38
2022-12-04T12:13:10.102Z,29.10
2022-12-04T12:15:36.743Z,33.38
2022-12-04T12:18:20.929Z,31.38
2022-12-04T12:21:13.688Z,29.42
2022-12-04T12:24:03.401Z,30.90
2022-12-04T12:26:37.399Z,29.13
2022-12-04T12:29:33.375Z,28.45
2022-12-04T12:32:26.101Z,21.08
2022-12-04T12:34:53.004Z,24.75
2022-12-04T12:37:52.373Z,17.35
2022-12-04T12:40:39.895Z,22.73
2022-12-04T12:43:13.888Z,33.40
2022-12-04T12:45:51.694Z,31.83
2022-12-04T12:48:30.543Z,34.22
2022-12-04T12:51:29.178Z,23.00
2022-12-04T12:54:04.887Z,26.77
2022-12-04T12:56:43.371Z,24.98
2022-12-04T12:59:19.517Z,36.42
2022-12-04T13:02:04.680Z,27.17
2022-12-04T13:04:38.817Z,18.60
2022-12-04T13:07:25.084Z,32.35
2022-12-04T13:10:07.772Z,23.58
2022-12-04T13:12:47.659Z,26.88
2022-12-04T13:15:23.441Z,16.88
2022-12-04T13:17:53.646Z,23.48
2022-12-04T13:20:25.620Z,26.25
2022-12-04T13:25:47.934Z,34.80
2022-12-04T13:29:08.577Z,22.67
2022-12-04T13:32:01.952Z,27.58
2022-12-04T13:34:42.773Z,26.27
2022-12-04T13:37:49.017Z,24.35
2022-12-04T13:40:32.634Z,19.75
2022-12-04T13:43:43.136Z,24.30
2022-12-04T13:46:28.603Z,29.25
2022-12-04T13:48:55.775Z,30.50
2022-12-04T13:51:40.567Z,31.42
2022-12-04T13:54:26.998Z,31.08
2022-12-04T13:56:58.728Z,22.83
2022-12-04T13:59:28.541Z,26.85
2022-12-04T14:02:03.506Z,28.55
2022-12-04T14:04:44.466Z,32.42
2022-12-04T14:07:34.794Z,24.15
2022-12-04T14:10:07.630Z,38.55
2022-12-04T14:12:39.268Z,28.90
2022-12-04T14:15:29.075Z,30.60
2022-12-04T14:18:04.653Z,26.45
2022-12-04T14:20:42.486Z,18.27
2022-12-04T14:23:26.711Z,31.88
2022-12-04T14:26:02.985Z,24.35
2022-12-04T14:28:36.031Z,25.08
2022-12-04T14:31:19.615Z,20.00
2022-12-04T14:34:11.485Z,35.25
2022-12-04T14:36:44.018Z,34.72
2022-12-04T14:42:25.088Z,20.08
2022-12-04T14:47:47.123Z,29.58
2022-12-04T14:50:30.127Z,26.73
2022-12-04T14:53:19.168Z,25.77
2022-12-04T14:55:52.278Z,33.92
2022-12-04T14:58:29.976Z,26.80
2022-12-04T15:00:59.298Z,35.05
2022-12-04T15:03:29.844Z,33.85
2022-12-04T15:09:22.561Z,24.83
2022-12-04T15:12:31.139Z,26.17
2022-12-04T15:15:02.276Z,20.38
2022-12-04T15:17:28.902Z,22.15
2022-12-04T15:19:55.627Z,32.55
2022-12-04T15:22:26.163Z,19.60
2022-12-04T15:24:55.247Z,38.10
2022-12-04T15:27:32.066Z,27.92
2022-12-04T15:30:02.395Z,50.03
2022-12-04T15:32:32.902Z,45.92
2022-12-04T15:35:05.309Z,26.33
2022-12-04T15:37:36.628Z,32.78
2022-12-04T15:40:08.601Z,24.55
2022-12-04T15:42:35.231Z,30.95
2022-12-04T15:45:03.614Z,28.98
2022-12-04T15:47:33.136Z,25.70
2022-12-04T15:50:15.216Z,21.65
2022-12-04T15:52:59.770Z,40.10
2022-12-04T15:55:29.209Z,38.17
2022-12-04T15:58:02.256Z,32.28
2022-12-04T16:00:32.625Z,34.47
2022-12-04T16:03:00.381Z,35.00
2022-12-04T16:05:36.176Z,33.95
2022-12-04T16:08:20.990Z,45.55
2022-12-04T16:11:01.041Z,40.42
2022-12-04T16:13:31.755Z,34.72
2022-12-04T16:16:00.262Z,21.00
2022-12-04T16:18:28.628Z,26.83
2022-12-04T16:20:55.913Z,36.88
2022-12-04T16:23:25.004Z,37.10
2022-12-04T16:25:53.734Z,31.45
2022-12-04T16:28:20.993Z,33.65
2022-12-04T16:30:47.970Z,41.95
2022-12-04T16:33:15.891Z,22.15
2022-12-04T16:35:44.195Z,41.75
2022-12-04T16:38:17.606Z,33.47
2022-12-04T16:40:47.976Z,30.60
2022-12-04T16:43:16.394Z,35.28
2022-12-04T16:45:53.311Z,33.25
2022-12-04T16:48:20.161Z,31.88
2022-12-04T16:50:47.185Z,42.58
2022-12-04T16:53:21.576Z,26.65
2022-12-04T16:55:53.368Z,48.78
2022-12-04T16:58:20.840Z,29.92
2022-12-04T17:00:56.297Z,28.00
2022-12-04T17:03:28.333Z,38.63
2022-12-04T17:05:55.823Z,23.33
2022-12-04T17:08:23.202Z,43.70
2022-12-04T17:10:51.592Z,35.88
2022-12-04T17:13:21.399Z,48.28
2022-12-04T17:15:48.217Z,48.00
2022-12-04T17:18:20.545Z,50.88
2022-12-04T17:20:47.832Z,37.67
2022-12-04T17:23:14.430Z,48.00
2022-12-04T17:25:41.011Z,56.92
2022-12-04T17:28:09.907Z,59.13
2022-12-04T17:30:36.759Z,46.75
2022-12-04T17:33:04.942Z,32.45
2022-12-04T17:35:31.916Z,32.60
2022-12-04T17:38:05.672Z,34.88
2022-12-04T17:40:37.021Z,58.10
2022-12-04T17:43:03.947Z,61.20
2022-12-04T17:45:30.926Z,51.35
2022-12-04T17:48:00.038Z,52.40
2022-12-04T17:50:28.006Z,65.15
2022-12-04T17:52:54.807Z,56.13
2022-12-04T17:55:21.880Z,56.30
2022-12-04T17:57:48.578Z,56.33
2022-12-04T18:00:15.940Z,49.22
2022-12-04T18:02:42.719Z,27.42
2022-12-04T18:05:10.064Z,56.70
2022-12-04T18:07:36.825Z,46.00
2022-12-04T18:10:06.256Z,60.05
2022-12-04T18:12:33.884Z,56.25
2022-12-04T18:15:00.516Z,63.90
2022-12-04T18:17:27.241Z,50.80
2022-12-04T18:19:54.132Z,56.88
2022-12-04T18:22:22.547Z,58.28
2022-12-04T18:24:49.333Z,58.55
2022-12-04T18:27:15.981Z,53.60
2022-12-04T18:29:42.650Z,53.35
2022-12-04T18:32:09.371Z,55.15
2022-12-04T18:34:36.134Z,54.72
2022-12-04T18:37:02.819Z,53.85
2022-12-04T18:39:29.502Z,59.78
2022-12-04T18:41:59.659Z,49.55
2022-12-04T18:44:27.124Z,60.05
2022-12-04T18:46:53.942Z,68.45
2022-12-04T18:49:21.126Z,55.90
2022-12-04T18:51:50.018Z,47.08
2022-12-04T18:54:22.678Z,55.53
2022-12-04T18:56:50.285Z,55.72
2022-12-04T18:59:26.461Z,51.65
2022-12-04T19:01:54.103Z,63.17
2022-12-04T19:04:23.262Z,45.72
2022-12-04T19:06:53.079Z,55.80
2022-12-04T19:09:40.860Z,60.63
2022-12-04T19:12:07.874Z,54.35
2022-12-04T19:14:34.482Z,58.33
2022-12-04T19:17:01.207Z,56.13
2022-12-04T19:19:31.700Z,50.38
2022-12-04T19:21:59.239Z,55.75
2022-12-04T19:24:25.801Z,59.50
2022-12-04T19:26:54.084Z,47.25
2022-12-04T19:29:20.670Z,47.47
2022-12-04T19:31:47.376Z,57.38
2022-12-04T19:34:14.352Z,58.25
2022-12-04T19:36:41.844Z,50.95
2022-12-04T19:39:09.883Z,66.90
2022-12-04T19:41:38.773Z,60.10
2022-12-04T19:44:26.372Z,48.83
2022-12-04T19:46:54.172Z,37.45
2022-12-04T19:49:20.808Z,54.05
2022-12-04T19:54:19.070Z,56.33
2022-12-04T19:56:52.207Z,62.75
2022-12-04T19:59:20.400Z,51.15
2022-12-04T20:01:47.143Z,65.07
2022-12-04T20:04:13.936Z,66.85
2022-12-04T20:06:43.983Z,64.45
2022-12-04T20:09:13.616Z,68.50
2022-12-04T20:11:41.166Z,61.17
2022-12-04T20:14:08.465Z,55.78
2022-12-04T20:16:35.778Z,64.90
2022-12-04T20:19:05.553Z,65.13
2022-12-04T20:21:32.704Z,45.50
2022-12-04T20:24:04.866Z,57.25
2022-12-04T20:26:38.634Z,58.20
2022-12-04T20:29:07.141Z,60.88
2022-12-04T20:31:36.215Z,59.65
2022-12-04T20:34:08.186Z,47.13
2022-12-04T20:36:44.774Z,43.45
2022-12-04T20:39:12.743Z,65.03
2022-12-04T20:41:43.346Z,44.63
2022-12-04T20:44:13.987Z,41.45
2022-12-04T20:46:41.376Z,43.70
2022-12-04T20:49:15.812Z,40.47
2022-12-04T20:51:48.018Z,60.45
2022-12-04T20:54:18.401Z,43.38
2022-12-04T20:56:46.124Z,57.13
2022-12-04T20:59:15.563Z,58.20
2022-12-04T21:01:43.677Z,58.78
2022-12-04T21:04:12.819Z,54.15
2022-12-04T21:06:41.001Z,64.20
2022-12-04T21:09:29.999Z,62.75
2022-12-04T21:11:57.180Z,53.70
2022-12-04T21:14:45.352Z,68.70
2022-12-04T21:17:18.403Z,62.35
2022-12-04T21:19:50.733Z,63.55
2022-12-04T21:22:19.624Z,63.00
2022-12-04T21:24:46.753Z,59.13
2022-12-04T21:27:20.424Z,60.38
2022-12-04T21:29:47.612Z,33.63
2022-12-04T21:32:14.273Z,50.47
2022-12-04T21:34:40.849Z,65.38
2022-12-04T21:37:07.468Z,60.30
2022-12-04T21:39:35.779Z,53.33
2022-12-04T21:42:21.175Z,47.92
2022-12-04T21:44:49.602Z,55.13
2022-12-04T21:47:16.335Z,59.03
2022-12-04T21:49:43.034Z,54.72
2022-12-04T21:52:09.625Z,62.58
2022-12-04T21:54:36.557Z,56.80
2022-12-04T21:57:03.251Z,58.65
2022-12-04T21:59:29.963Z,43.30
2022-12-04T22:01:56.680Z,48.90
2022-12-04T22:04:24.707Z,60.83
2022-12-04T22:06:52.414Z,52.85
2022-12-04T22:09:19.505Z,57.83
2022-12-04T22:11:46.894Z,58.28
2022-12-04T22:14:13.667Z,56.95
2022-12-04T22:16:43.353Z,68.43
2022-12-04T22:19:11.549Z,38.55
2022-12-04T22:21:38.936Z,50.00
2022-12-04T22:24:06.034Z,57.17
2022-12-04T22:26:35.780Z,60.58
2022-12-04T22:29:11.265Z,29.77
2022-12-04T22:31:51.335Z,53.20
2022-12-04T22:34:18.100Z,48.90
2022-12-04T22:36:44.747Z,48.58
2022-12-04T22:39:11.576Z,53.28
2022-12-04T22:41:40.202Z,52.88
2022-12-04T22:44:07.090Z,64.90
2022-12-04T22:46:36.987Z,58.78
2022-12-04T22:49:03.740Z,57.85
2022-12-04T22:51:30.742Z,51.63
2022-12-04T22:53:58.452Z,52.50
2022-12-04T22:56:29.779Z,65.22
2022-12-04T22:58:58.089Z,62.72
2022-12-04T23:01:33.229Z,64.10
2022-12-04T23:04:01.151Z,56.53
2022-12-04T23:06:30.966Z,56.08
2022-12-04T23:09:06.463Z,62.72
2022-12-04T23:11:33.499Z,70.15
2022-12-04T23:14:03.080Z,59.40
2022-12-04T23:16:31.736Z,63.38
2022-12-04T23:18:58.422Z,44.50
2022-12-04T23:21:25.901Z,57.92
2022-12-04T23:23:54.132Z,63.47
2022-12-04T23:26:23.884Z,48.15
2022-12-04T23:28:51.113Z,58.28
2022-12-04T23:31:18.586Z,63.30
2022-12-04T23:33:45.382Z,39.65
2022-12-04T23:36:14.641Z,49.15
2022-12-04T23:38:42.862Z,47.75
2022-12-04T23:41:18.700Z,60.28
2022-12-04T23:43:46.338Z,73.20
2022-12-04T23:46:15.451Z,57.42
2022-12-04T23:48:43.958Z,67.55
2022-12-04T23:51:12.820Z,76.07
2022-12-04T23:53:39.565Z,69.25
2022-12-04T23:56:16.163Z,59.15
2022-12-04T23:58:44.580Z,60.65
